Time;durP1;ratioP1;P1;durP2;ratioP2;P2;SDS_P1;SDS_P2;PMS_P1;PMS_P2;Temp;Humidity;BMP_temperature;BMP_pressure;BME280_temperature;BME280_humidity;BME280_pressure;Samples;Min_cycle;Max_cycle;Signal;HPM_P1;HPM_P2
2021/12/10 06:00:17;;;;;;;7.33;6.63;;;3.60;97.20;;;;;;1708309;29;20179;-77
2021/12/10 06:01:11;;;;;;;7.05;5.97;;;3.60;97.20;;;;;;1708287;29;20206;-75
2021/12/10 06:02:03;;;;;;;7.85;6.03;;;3.60;97.20;;;;;;1708308;29;20587;-76
2021/12/10 06:02:55;;;;;;;7.70;6.25;;;3.60;97.20;;;;;;1708340;29;20199;-75
2021/12/10 06:03:52;;;;;;;7.50;6.40;;;3.60;97.20;;;;;;1707502;29;20229;-76
2021/12/10 06:04:43;;;;;;;5.97;5.38;;;3.60;97.20;;;;;;1708230;29;20206;-76
2021/12/10 06:05:37;;;;;;;7.40;6.10;;;3.60;97.20;;;;;;1708218;29;20210;-76
2021/12/10 06:06:32;;;;;;;8.77;5.72;;;3.60;97.20;;;;;;1708130;28;20653;-76
2021/12/10 06:07:23;;;;;;;7.00;6.30;;;3.60;97.20;;;;;;1708313;29;20890;-76
2021/12/10 06:08:16;;;;;;;6.67;5.80;;;3.70;97.20;;;;;;1708309;28;20191;-76
2021/12/10 06:09:09;;;;;;;6.97;5.65;;;3.70;97.20;;;;;;1708283;29;20485;-76
2021/12/10 06:10:01;;;;;;;6.65;6.05;;;3.80;97.20;;;;;;1708085;29;20198;-76
2021/12/10 06:10:55;;;;;;;6.78;6.05;;;3.80;97.20;;;;;;1708164;29;20242;-76
2021/12/10 06:11:47;;;;;;;7.50;6.25;;;3.90;97.20;;;;;;1708106;29;20595;-76
2021/12/10 06:12:37;;;;;;;7.15;6.20;;;3.90;97.20;;;;;;1708184;29;20209;-76
2021/12/10 06:13:29;;;;;;;11.53;6.33;;;3.90;97.20;;;;;;1707733;28;20240;-75
2021/12/10 06:14:20;;;;;;;7.80;6.60;;;3.90;97.20;;;;;;1708147;29;20822;-75
2021/12/10 06:15:15;;;;;;;11.53;6.80;;;4.00;97.20;;;;;;1708219;29;20588;-76
2021/12/10 06:16:07;;;;;;;9.93;8.10;;;4.00;97.20;;;;;;1711207;28;20202;-76
2021/12/10 06:16:59;;;;;;;8.68;7.72;;;4.00;97.20;;;;;;1712283;28;20708;-75
2021/12/10 06:17:50;;;;;;;8.93;7.60;;;4.00;97.20;;;;;;1703014;29;20203;-76
2021/12/10 06:18:42;;;;;;;8.43;7.53;;;4.00;97.20;;;;;;1702503;29;20274;-76
2021/12/10 06:19:33;;;;;;;9.95;7.82;;;4.00;97.20;;;;;;1708113;29;20207;-76
2021/12/10 06:20:27;;;;;;;10.00;8.40;;;4.00;97.20;;;;;;1708085;29;20203;-76
2021/12/10 06:21:18;;;;;;;10.65;7.80;;;4.00;97.20;;;;;;1708149;29;20206;-77
2021/12/10 06:22:11;;;;;;;10.23;8.65;;;3.90;97.20;;;;;;1708092;29;20241;-76
2021/12/10 06:23:03;;;;;;;10.93;8.35;;;3.90;97.20;;;;;;1708049;28;20206;-76
2021/12/10 06:23:55;;;;;;;12.82;8.35;;;3.80;97.20;;;;;;1707901;29;20203;-77
2021/12/10 06:24:45;;;;;;;9.40;8.10;;;3.70;97.20;;;;;;1708833;28;20249;-76
2021/12/10 06:25:39;;;;;;;9.77;8.33;;;3.70;97.20;;;;;;1714695;28;20201;-76
2021/12/10 06:26:30;;;;;;;11.30;8.05;;;3.70;97.20;;;;;;1714766;28;20241;-75
2021/12/10 06:27:22;;;;;;;9.27;7.75;;;3.70;97.20;;;;;;1714554;28;20632;-76
2021/12/10 06:28:12;;;;;;;9.52;8.00;;;3.70;97.20;;;;;;1714613;28;20685;-76
2021/12/10 06:29:05;;;;;;;9.90;7.27;;;3.70;97.20;;;;;;1714658;28;20561;-75
2021/12/10 06:29:57;;;;;;;8.30;6.55;;;3.70;97.20;;;;;;1714702;28;20245;-75
2021/12/10 06:30:52;;;;;;;12.60;8.45;;;3.70;97.20;;;;;;1714020;28;20205;-76
2021/12/10 06:31:43;;;;;;;11.80;7.70;;;3.70;97.20;;;;;;1713983;28;20617;-75
2021/12/10 06:32:35;;;;;;;8.80;7.90;;;3.70;97.20;;;;;;1714361;28;20272;-76
2021/12/10 06:33:28;;;;;;;10.98;9.02;;;3.70;97.20;;;;;;1713597;28;20496;-75
2021/12/10 06:34:20;;;;;;;9.02;8.23;;;3.60;97.20;;;;;;1712355;28;20230;-75
2021/12/10 06:35:16;;;;;;;9.13;7.05;;;3.60;97.20;;;;;;1707959;29;20206;-76
2021/12/10 06:36:08;;;;;;;8.25;7.45;;;3.60;97.20;;;;;;1708111;29;20236;-76
2021/12/10 06:36:59;;;;;;;9.13;8.07;;;3.60;97.20;;;;;;1707888;29;20214;-75
2021/12/10 06:37:53;;;;;;;8.87;7.37;;;3.50;97.20;;;;;;1707849;29;20208;-76
2021/12/10 06:38:45;;;;;;;12.23;9.73;;;3.50;97.20;;;;;;1707385;29;20546;-75
2021/12/10 06:39:37;;;;;;;9.50;8.60;;;3.50;97.20;;;;;;1707423;29;20581;-75
2021/12/10 06:40:31;;;;;;;14.25;12.00;;;3.50;97.20;;;;;;1707278;29;20238;-75
2021/12/10 06:41:23;;;;;;;14.75;13.15;;;3.50;97.20;;;;;;1707911;29;20297;-76
2021/12/10 06:42:14;;;;;;;18.30;12.90;;;3.50;97.20;;;;;;1708040;29;20234;-76
2021/12/10 06:43:06;;;;;;;12.60;10.97;;;3.50;97.20;;;;;;1707924;29;20212;-76
2021/12/10 06:43:57;;;;;;;8.82;7.85;;;3.50;97.20;;;;;;1707261;29;20583;-76
2021/12/10 06:44:49;;;;;;;8.32;7.13;;;3.50;97.20;;;;;;1708226;28;20257;-75
2021/12/10 06:45:42;;;;;;;8.55;7.50;;;3.50;97.20;;;;;;1707836;29;20202;-76
2021/12/10 06:46:35;;;;;;;7.85;6.75;;;3.60;97.20;;;;;;1708017;29;20265;-74
2021/12/10 06:47:26;;;;;;;7.88;6.20;;;3.60;97.20;;;;;;1708031;29;20207;-74
2021/12/10 06:48:23;;;;;;;7.80;6.50;;;3.70;97.20;;;;;;1707950;29;20210;-74
2021/12/10 06:49:15;;;;;;;7.38;6.57;;;3.70;97.20;;;;;;1707949;29;20203;-74
2021/12/10 06:50:08;;;;;;;8.85;6.30;;;3.70;97.20;;;;;;1708065;29;20213;-74
2021/12/10 06:51:04;;;;;;;7.43;6.60;;;3.80;97.20;;;;;;1708035;29;20736;-76
2021/12/10 06:51:54;;;;;;;8.23;6.68;;;3.80;97.20;;;;;;1707495;28;20241;-76
2021/12/10 06:52:47;;;;;;;8.63;7.40;;;3.80;97.20;;;;;;1707923;29;20210;-76
2021/12/10 06:53:39;;;;;;;10.43;7.72;;;3.80;97.20;;;;;;1707662;28;20226;-76
2021/12/10 06:54:31;;;;;;;9.57;6.93;;;3.80;97.20;;;;;;1710635;28;20193;-76
2021/12/10 06:55:21;;;;;;;8.88;6.55;;;3.80;97.20;;;;;;1712674;28;20213;-75
2021/12/10 06:56:15;;;;;;;7.53;6.70;;;3.90;97.20;;;;;;1707875;29;20195;-76
2021/12/10 06:57:06;;;;;;;8.75;6.95;;;3.90;97.20;;;;;;1707943;29;20206;-77
2021/12/10 06:57:58;;;;;;;9.75;6.90;;;3.90;97.20;;;;;;1707958;29;20210;-76
2021/12/10 06:58:49;;;;;;;8.40;7.38;;;3.90;97.20;;;;;;1707957;29;20221;-76
2021/12/10 06:59:41;;;;;;;7.32;6.63;;;4.00;97.20;;;;;;1708035;29;20692;-76
2021/12/10 07:00:36;;;;;;;8.77;7.47;;;4.00;97.20;;;;;;1707883;29;20211;-76
2021/12/10 07:01:31;;;;;;;8.18;7.20;;;4.00;97.20;;;;;;1707897;29;20202;-76
2021/12/10 07:02:23;;;;;;;9.38;7.07;;;4.00;97.20;;;;;;1707923;29;20211;-75
2021/12/10 07:03:17;;;;;;;8.95;7.38;;;4.00;97.20;;;;;;1707552;28;20574;-75
2021/12/10 07:04:11;;;;;;;9.18;7.70;;;4.00;97.20;;;;;;1707220;29;20206;-76
2021/12/10 07:05:04;;;;;;;8.50;7.60;;;4.00;97.20;;;;;;1701320;29;20235;-75
2021/12/10 07:05:57;;;;;;;9.20;7.70;;;4.00;97.20;;;;;;1701264;29;20689;-76
2021/12/10 07:06:49;;;;;;;8.48;7.63;;;4.00;97.20;;;;;;1701215;29;20286;-75
2021/12/10 07:07:41;;;;;;;9.45;8.18;;;4.00;97.20;;;;;;1701200;29;20210;-75
2021/12/10 07:08:35;;;;;;;9.23;7.43;;;4.00;97.20;;;;;;1701270;29;20206;-75
2021/12/10 07:09:25;;;;;;;11.52;7.75;;;3.90;97.20;;;;;;1701231;29;20229;-75
2021/12/10 07:10:18;;;;;;;10.83;7.50;;;3.90;97.20;;;;;;1701313;29;20696;-76
2021/12/10 07:11:11;;;;;;;10.15;7.72;;;3.80;97.20;;;;;;1701279;29;20253;-76
2021/12/10 07:12:03;;;;;;;9.38;8.02;;;3.80;97.20;;;;;;1701195;29;20619;-76
2021/12/10 07:12:54;;;;;;;8.60;7.15;;;3.80;97.20;;;;;;1701131;29;20212;-76
2021/12/10 07:13:50;;;;;;;8.68;6.97;;;3.80;97.20;;;;;;1700833;29;20211;-76
2021/12/10 07:14:43;;;;;;;7.40;6.60;;;3.70;97.20;;;;;;1708937;28;20206;-76
2021/12/10 07:15:36;;;;;;;9.40;7.13;;;3.70;97.20;;;;;;1714426;28;20681;-76
2021/12/10 07:16:28;;;;;;;7.40;6.50;;;3.60;97.20;;;;;;1714336;28;20229;-76
2021/12/10 07:17:20;;;;;;;7.78;6.97;;;3.60;97.20;;;;;;1714477;28;20248;-76
2021/12/10 07:18:13;;;;;;;8.88;6.55;;;3.60;97.20;;;;;;1714444;28;20213;-76
2021/12/10 07:19:07;;;;;;;7.18;6.47;;;3.50;97.20;;;;;;1714495;28;20345;-75
2021/12/10 07:19:58;;;;;;;7.72;6.85;;;3.50;97.20;;;;;;1712467;28;22281;-76
2021/12/10 07:20:52;;;;;;;9.30;7.25;;;3.50;97.20;;;;;;1703469;29;20196;-75
2021/12/10 07:21:44;;;;;;;10.57;7.20;;;3.50;97.20;;;;;;1701650;29;20210;-75
2021/12/10 07:22:35;;;;;;;7.90;7.10;;;3.40;97.20;;;;;;1707825;29;20265;-75
2021/12/10 07:23:27;;;;;;;7.57;6.57;;;3.40;97.20;;;;;;1707413;28;20277;-75
2021/12/10 07:24:19;;;;;;;8.90;6.72;;;3.50;97.20;;;;;;1707723;29;20499;-75
2021/12/10 07:25:11;;;;;;;9.77;6.43;;;3.50;97.20;;;;;;1707681;29;20241;-75
2021/12/10 07:26:02;;;;;;;10.77;7.22;;;3.50;97.20;;;;;;1707677;29;20578;-75
2021/12/10 07:26:55;;;;;;;8.68;6.75;;;3.50;97.20;;;;;;1707718;29;20285;-75
2021/12/10 07:27:46;;;;;;;7.82;7.03;;;3.50;97.20;;;;;;1707732;29;20202;-75
2021/12/10 07:28:38;;;;;;;7.63;6.75;;;3.50;97.20;;;;;;1707801;29;20207;-75
2021/12/10 07:29:28;;;;;;;7.65;6.85;;;3.50;97.20;;;;;;1707693;29;20203;-75
2021/12/10 07:30:24;;;;;;;9.23;7.50;;;3.50;97.20;;;;;;1707799;29;20194;-75
2021/12/10 07:31:15;;;;;;;9.55;7.80;;;3.50;97.20;;;;;;1707797;29;20206;-75
2021/12/10 07:32:08;;;;;;;8.57;7.72;;;3.50;97.20;;;;;;1707682;29;20217;-75
2021/12/10 07:32:59;;;;;;;8.02;7.20;;;3.50;97.20;;;;;;1702855;29;20245;-75
2021/12/10 07:33:53;;;;;;;12.32;8.23;;;3.50;97.20;;;;;;1704224;29;20194;-75
2021/12/10 07:34:44;;;;;;;8.85;7.75;;;3.50;97.20;;;;;;1701075;29;20214;-75
2021/12/10 07:35:37;;;;;;;9.80;7.43;;;3.50;97.20;;;;;;1702065;29;20202;-76
2021/12/10 07:36:28;;;;;;;9.18;8.05;;;3.50;97.20;;;;;;1701143;29;20253;-76
2021/12/10 07:37:21;;;;;;;9.77;7.75;;;3.40;97.20;;;;;;1701042;29;20670;-75
2021/12/10 07:38:12;;;;;;;10.20;7.50;;;3.50;97.20;;;;;;1701050;29;20218;-75
2021/12/10 07:39:05;;;;;;;8.20;7.30;;;3.50;97.20;;;;;;1701026;29;20195;-75
2021/12/10 07:39:56;;;;;;;8.98;7.95;;;3.40;97.20;;;;;;1701027;29;20985;-76
2021/12/10 07:40:48;;;;;;;8.40;7.60;;;3.50;97.20;;;;;;1701002;29;20581;-76
2021/12/10 07:41:40;;;;;;;7.95;7.15;;;3.50;97.20;;;;;;1700993;29;20509;-76
2021/12/10 07:42:32;;;;;;;8.50;7.70;;;3.50;97.20;;;;;;1700930;29;20199;-76
2021/12/10 07:43:24;;;;;;;8.18;7.28;;;3.50;97.20;;;;;;1700664;29;20223;-76
2021/12/10 07:44:15;;;;;;;9.43;7.10;;;3.60;97.20;;;;;;1700934;29;20207;-76
2021/12/10 07:45:09;;;;;;;7.93;7.00;;;3.60;97.20;;;;;;1700980;29;20211;-75
2021/12/10 07:46:00;;;;;;;8.60;7.80;;;3.60;97.20;;;;;;1700614;29;20462;-75
2021/12/10 07:46:52;;;;;;;9.47;8.57;;;3.70;97.20;;;;;;1700508;29;20195;-75
2021/12/10 07:47:42;;;;;;;9.15;8.10;;;3.70;97.20;;;;;;1700394;29;20350;-75
2021/12/10 07:48:35;;;;;;;13.83;8.57;;;3.70;97.20;;;;;;1700324;29;20199;-75
2021/12/10 07:49:30;;;;;;;9.07;7.95;;;3.70;97.20;;;;;;1700424;29;20463;-76
2021/12/10 07:50:27;;;;;;;10.40;7.95;;;3.80;97.20;;;;;;1700740;29;20218;-75
2021/12/10 07:51:22;;;;;;;8.50;7.60;;;3.80;97.20;;;;;;1700835;29;20203;-75
2021/12/10 07:52:20;;;;;;;7.97;7.13;;;3.80;97.20;;;;;;1700744;29;20210;-76
2021/12/10 07:53:11;;;;;;;7.45;6.75;;;3.80;97.20;;;;;;1700824;29;20621;-76
2021/12/10 07:54:03;;;;;;;9.00;8.00;;;3.90;97.20;;;;;;1705714;29;20207;-76
2021/12/10 07:54:54;;;;;;;7.90;7.20;;;3.90;97.20;;;;;;1703108;29;20576;-76
2021/12/10 07:55:47;;;;;;;9.18;6.80;;;3.90;97.20;;;;;;1700678;29;20239;-75
2021/12/10 07:56:38;;;;;;;7.47;6.78;;;3.90;97.20;;;;;;1700703;29;20207;-76
2021/12/10 07:57:30;;;;;;;7.82;7.03;;;4.00;97.20;;;;;;1700797;29;20197;-76
2021/12/10 07:58:21;;;;;;;10.63;9.38;;;4.00;97.20;;;;;;1700786;29;20666;-75
2021/12/10 07:59:13;;;;;;;9.32;8.48;;;4.00;97.20;;;;;;1700701;29;20282;-75
2021/12/10 08:00:06;;;;;;;11.50;8.43;;;4.00;97.20;;;;;;1700721;29;20717;-76
2021/12/10 08:00:59;;;;;;;8.07;6.95;;;4.00;97.20;;;;;;1706482;29;20585;-76
2021/12/10 08:01:50;;;;;;;8.73;7.25;;;4.00;97.20;;;;;;1701998;29;20214;-76
2021/12/10 08:02:42;;;;;;;7.70;7.00;;;4.10;97.20;;;;;;1700970;29;20209;-75
2021/12/10 08:03:34;;;;;;;9.68;8.68;;;4.00;97.20;;;;;;1699794;29;20261;-76
2021/12/10 08:04:24;;;;;;;7.55;6.85;;;4.00;97.20;;;;;;1700852;29;20234;-76
2021/12/10 08:05:19;;;;;;;8.40;7.13;;;4.10;97.20;;;;;;1700852;29;20209;-76
2021/12/10 08:06:10;;;;;;;8.85;6.25;;;4.10;97.20;;;;;;1700939;29;20225;-75
2021/12/10 08:07:02;;;;;;;7.73;7.03;;;4.10;97.20;;;;;;1700962;29;20207;-75
2021/12/10 08:07:54;;;;;;;6.93;6.30;;;4.10;97.20;;;;;;1700816;29;20447;-76
2021/12/10 08:08:46;;;;;;;6.30;5.70;;;4.10;97.20;;;;;;1700915;29;20207;-76
2021/12/10 08:09:37;;;;;;;6.90;6.20;;;4.20;97.20;;;;;;1700843;29;20218;-75
2021/12/10 08:10:30;;;;;;;7.13;6.13;;;4.20;97.20;;;;;;1703492;29;20195;-76
2021/12/10 08:11:22;;;;;;;6.50;5.88;;;4.10;97.20;;;;;;1707512;29;20682;-75
2021/12/10 08:12:14;;;;;;;6.32;5.57;;;4.20;97.20;;;;;;1707470;29;20684;-75
2021/12/10 08:13:05;;;;;;;6.57;5.95;;;4.20;97.20;;;;;;1707348;29;20686;-76
2021/12/10 08:13:57;;;;;;;7.55;5.65;;;4.20;97.20;;;;;;1707267;29;20230;-75
2021/12/10 08:14:52;;;;;;;5.82;5.25;;;4.20;97.20;;;;;;1707334;29;20226;-76
2021/12/10 08:15:44;;;;;;;6.15;5.45;;;4.20;97.20;;;;;;1707467;29;20205;-75
2021/12/10 08:16:36;;;;;;;6.32;5.05;;;4.20;97.20;;;;;;1707391;29;20298;-76
2021/12/10 08:17:28;;;;;;;6.15;5.32;;;4.20;97.20;;;;;;1707439;29;20206;-76
2021/12/10 08:18:20;;;;;;;5.05;4.55;;;4.20;97.20;;;;;;1707491;29;20214;-75
2021/12/10 08:19:12;;;;;;;5.78;5.05;;;4.20;97.20;;;;;;1707437;29;20202;-75
2021/12/10 08:20:06;;;;;;;5.25;4.75;;;4.30;97.20;;;;;;1707453;29;20207;-76
2021/12/10 08:21:00;;;;;;;5.75;5.15;;;4.30;97.20;;;;;;1707268;29;20226;-75
2021/12/10 08:21:51;;;;;;;5.22;4.72;;;4.30;97.20;;;;;;1707390;29;20524;-75
2021/12/10 08:22:43;;;;;;;5.33;4.83;;;4.30;97.20;;;;;;1707450;29;20218;-76
2021/12/10 08:23:36;;;;;;;5.90;4.80;;;4.30;97.20;;;;;;1707033;29;20265;-75
2021/12/10 08:24:27;;;;;;;7.03;5.45;;;4.30;97.20;;;;;;1707307;29;20245;-76
2021/12/10 08:25:21;;;;;;;7.27;5.10;;;4.40;97.20;;;;;;1707373;29;20202;-75
2021/12/10 08:26:13;;;;;;;6.43;5.25;;;4.40;97.20;;;;;;1707453;29;20245;-76
2021/12/10 08:27:05;;;;;;;6.03;4.97;;;4.40;97.20;;;;;;1707415;29;20230;-76
2021/12/10 08:27:57;;;;;;;7.07;4.85;;;4.40;97.20;;;;;;1707369;29;20252;-76
2021/12/10 08:28:49;;;;;;;5.80;4.95;;;4.40;97.20;;;;;;1707332;29;20249;-76
2021/12/10 08:29:42;;;;;;;6.80;5.53;;;4.40;97.20;;;;;;1707455;29;20287;-76
2021/12/10 08:30:36;;;;;;;6.75;5.15;;;4.40;97.20;;;;;;1707088;29;20197;-75
2021/12/10 08:31:28;;;;;;;6.03;5.40;;;4.30;97.20;;;;;;1707365;29;20206;-75
2021/12/10 08:32:22;;;;;;;8.25;6.40;;;4.30;97.20;;;;;;1707408;29;20610;-76
2021/12/10 08:33:13;;;;;;;6.32;5.80;;;4.30;97.20;;;;;;1707342;29;20239;-75
2021/12/10 08:34:06;;;;;;;8.05;5.43;;;4.30;97.20;;;;;;1707072;29;20195;-76
2021/12/10 08:34:57;;;;;;;7.90;6.05;;;4.30;97.20;;;;;;1707294;29;20237;-75
2021/12/10 08:35:52;;;;;;;7.90;5.97;;;4.30;97.20;;;;;;1707232;29;20198;-75
2021/12/10 08:36:44;;;;;;;6.28;5.45;;;4.30;97.20;;;;;;1707351;29;20741;-75
2021/12/10 08:37:36;;;;;;;8.85;6.88;;;4.30;97.20;;;;;;1707418;29;20206;-75
2021/12/10 08:38:28;;;;;;;7.57;6.13;;;4.40;97.20;;;;;;1707380;29;20705;-75
2021/12/10 08:39:20;;;;;;;8.32;6.25;;;4.40;97.20;;;;;;1707382;29;20662;-76
2021/12/10 08:40:14;;;;;;;8.20;6.72;;;4.40;97.20;;;;;;1706912;29;20202;-76
2021/12/10 08:41:11;;;;;;;7.35;6.40;;;4.50;97.20;;;;;;1700682;29;20203;-75
2021/12/10 08:42:03;;;;;;;7.60;6.43;;;4.50;97.20;;;;;;1700771;29;20718;-76
2021/12/10 08:42:54;;;;;;;8.63;7.15;;;4.50;97.20;;;;;;1700571;29;20231;-76
2021/12/10 08:43:47;;;;;;;10.13;7.37;;;4.60;97.20;;;;;;1700505;29;20207;-75
2021/12/10 08:44:39;;;;;;;8.13;6.28;;;4.60;97.20;;;;;;1700641;29;20446;-76
2021/12/10 08:45:30;;;;;;;6.97;6.00;;;4.60;97.20;;;;;;1700583;29;20771;-75
2021/12/10 08:46:22;;;;;;;8.02;6.13;;;4.60;97.20;;;;;;1700694;29;20243;-75
2021/12/10 08:47:14;;;;;;;6.40;5.68;;;4.60;97.20;;;;;;1700691;29;20770;-76
2021/12/10 08:48:06;;;;;;;6.60;5.85;;;4.60;97.20;;;;;;1700696;29;20206;-76
2021/12/10 08:48:59;;;;;;;7.43;5.93;;;4.60;97.20;;;;;;1700730;29;20214;-76
2021/12/10 08:49:50;;;;;;;6.57;5.93;;;4.60;97.20;;;;;;1700628;29;20294;-76
2021/12/10 08:50:42;;;;;;;9.15;7.03;;;4.60;97.20;;;;;;1701064;29;20203;-76
2021/12/10 08:51:37;;;;;;;7.38;6.00;;;4.50;97.20;;;;;;1700681;29;20191;-76
2021/12/10 08:52:29;;;;;;;8.73;5.72;;;4.50;97.20;;;;;;1700591;29;20236;-76
2021/12/10 08:53:21;;;;;;;6.63;6.03;;;4.40;97.20;;;;;;1700663;29;20223;-75
2021/12/10 08:54:14;;;;;;;7.15;6.28;;;4.40;97.20;;;;;;1700348;29;20251;-76
2021/12/10 08:55:10;;;;;;;6.70;5.15;;;4.30;97.20;;;;;;1700669;29;20334;-76
2021/12/10 08:56:00;;;;;;;7.45;6.03;;;4.30;97.20;;;;;;1700651;29;20218;-76
2021/12/10 08:56:52;;;;;;;8.50;5.90;;;4.30;97.20;;;;;;1700701;29;20202;-76
2021/12/10 08:57:43;;;;;;;6.40;5.38;;;4.30;97.20;;;;;;1700600;29;20481;-76
2021/12/10 08:58:35;;;;;;;5.63;5.13;;;4.20;97.20;;;;;;1700719;29;20207;-75
2021/12/10 08:59:26;;;;;;;8.25;5.35;;;4.20;97.20;;;;;;1700640;29;20231;-76
2021/12/10 09:00:20;;;;;;;6.75;5.32;;;4.20;97.20;;;;;;1700838;29;20305;-76
2021/12/10 09:01:14;;;;;;;5.65;5.03;;;4.20;97.20;;;;;;1706923;29;20682;-76
2021/12/10 09:02:09;;;;;;;9.70;5.22;;;4.10;97.20;;;;;;1707380;29;20670;-76
2021/12/10 09:03:01;;;;;;;7.32;5.05;;;4.10;97.20;;;;;;1707247;29;20210;-75
2021/12/10 09:03:55;;;;;;;6.00;5.40;;;4.10;97.20;;;;;;1706986;29;20203;-76
2021/12/10 09:04:46;;;;;;;5.30;4.80;;;4.10;97.20;;;;;;1707174;29;20199;-76
2021/12/10 09:05:39;;;;;;;5.57;4.83;;;4.10;97.20;;;;;;1707134;29;20206;-76
2021/12/10 09:06:33;;;;;;;5.95;5.45;;;4.10;97.20;;;;;;1707189;29;20453;-76
2021/12/10 09:07:25;;;;;;;6.05;4.25;;;4.00;97.20;;;;;;1707297;29;20654;-76
2021/12/10 09:08:17;;;;;;;5.82;4.30;;;4.00;97.20;;;;;;1707302;29;20237;-75
2021/12/10 09:09:11;;;;;;;4.30;3.90;;;4.00;97.20;;;;;;1707240;29;20210;-76
2021/12/10 09:10:07;;;;;;;8.50;4.80;;;4.00;97.20;;;;;;1707258;29;20250;-76
2021/12/10 09:10:59;;;;;;;4.38;3.97;;;4.00;97.20;;;;;;1706228;28;20340;-76
2021/12/10 09:11:53;;;;;;;4.68;4.28;;;3.90;97.20;;;;;;1707150;29;20668;-76
2021/12/10 09:12:45;;;;;;;4.72;4.25;;;3.90;97.20;;;;;;1710506;28;20617;-75
2021/12/10 09:13:36;;;;;;;7.10;4.40;;;3.90;97.20;;;;;;1713452;28;20233;-76
2021/12/10 09:14:35;;;;;;;4.90;3.93;;;3.90;97.20;;;;;;1713838;28;20200;-76
2021/12/10 09:15:28;;;;;;;7.68;4.63;;;3.90;97.20;;;;;;1715223;28;20491;-76
2021/12/10 09:16:25;;;;;;;4.65;4.10;;;3.90;97.20;;;;;;1715281;28;20602;-76
2021/12/10 09:17:21;;;;;;;4.55;3.70;;;3.90;97.20;;;;;;1715276;28;20284;-76
2021/12/10 09:18:13;;;;;;;3.53;3.15;;;3.80;97.20;;;;;;1715230;28;20263;-75
2021/12/10 09:19:11;;;;;;;5.70;3.55;;;3.80;97.20;;;;;;1715213;28;20661;-76
2021/12/10 09:20:07;;;;;;;3.97;3.60;;;3.80;97.20;;;;;;1715218;28;20213;-75
2021/12/10 09:21:03;;;;;;;4.13;3.05;;;3.80;97.20;;;;;;1709727;28;20198;-76
2021/12/10 09:21:55;;;;;;;3.30;2.90;;;3.80;97.20;;;;;;1710870;28;20257;-76
2021/12/10 09:22:47;;;;;;;5.20;3.28;;;3.80;97.20;;;;;;1714957;28;20204;-75
2021/12/10 09:23:40;;;;;;;3.30;3.00;;;3.80;97.20;;;;;;1714850;28;20236;-76
2021/12/10 09:24:32;;;;;;;5.15;2.83;;;3.70;97.20;;;;;;1715044;28;20210;-76
2021/12/10 09:25:23;;;;;;;3.10;2.80;;;3.80;97.20;;;;;;1715123;28;20717;-75
2021/12/10 09:26:19;;;;;;;3.17;2.78;;;3.80;97.20;;;;;;1715227;28;20197;-75
2021/12/10 09:27:13;;;;;;;4.05;3.33;;;3.80;97.20;;;;;;1715129;28;20256;-75
2021/12/10 09:28:05;;;;;;;3.30;2.92;;;3.80;97.20;;;;;;1715169;28;20213;-75
2021/12/10 09:28:59;;;;;;;3.72;2.60;;;3.80;97.20;;;;;;1715183;28;20229;-75
2021/12/10 09:29:52;;;;;;;2.97;2.67;;;3.80;97.20;;;;;;1715129;28;20201;-75
2021/12/10 09:30:49;;;;;;;3.50;2.60;;;3.80;97.20;;;;;;1713398;28;20191;-75
2021/12/10 09:31:42;;;;;;;2.80;2.60;;;3.80;97.20;;;;;;1712631;28;20249;-76
2021/12/10 09:32:34;;;;;;;4.70;2.90;;;3.80;97.20;;;;;;1708546;29;20206;-76
2021/12/10 09:33:26;;;;;;;4.57;2.70;;;3.80;97.20;;;;;;1708082;29;20254;-76
2021/12/10 09:34:18;;;;;;;3.20;2.90;;;3.80;97.20;;;;;;1708395;29;20205;-75
2021/12/10 09:35:10;;;;;;;3.35;2.60;;;3.80;97.20;;;;;;1708376;29;20206;-75
2021/12/10 09:36:03;;;;;;;2.70;2.50;;;3.80;97.20;;;;;;1708430;29;20210;-76
2021/12/10 09:36:55;;;;;;;3.03;2.72;;;3.80;97.20;;;;;;1708452;29;20206;-76
2021/12/10 09:37:48;;;;;;;4.30;2.75;;;3.80;97.20;;;;;;1708417;29;20203;-75
2021/12/10 09:38:41;;;;;;;2.97;2.60;;;3.80;97.20;;;;;;1708520;29;20697;-75
2021/12/10 09:39:33;;;;;;;4.10;3.20;;;3.90;97.20;;;;;;1708389;29;20245;-75
2021/12/10 09:40:28;;;;;;;3.92;3.05;;;3.90;97.20;;;;;;1708542;28;20467;-76
2021/12/10 09:41:20;;;;;;;4.13;3.38;;;3.90;97.20;;;;;;1715169;28;20210;-75
2021/12/10 09:42:11;;;;;;;3.10;2.80;;;3.90;97.20;;;;;;1714501;28;20209;-76
2021/12/10 09:43:05;;;;;;;3.50;2.88;;;3.90;97.20;;;;;;1715015;28;20284;-76
2021/12/10 09:43:56;;;;;;;3.85;2.63;;;3.90;97.20;;;;;;1714804;28;20205;-76
2021/12/10 09:44:48;;;;;;;5.00;2.77;;;3.90;97.20;;;;;;1715067;28;20198;-76
2021/12/10 09:45:42;;;;;;;3.75;2.95;;;3.90;97.20;;;;;;1714946;28;20500;-75
2021/12/10 09:46:33;;;;;;;2.97;2.67;;;3.80;97.20;;;;;;1714988;28;20210;-75
2021/12/10 09:47:24;;;;;;;2.85;2.65;;;3.80;97.20;;;;;;1715032;28;20209;-75
2021/12/10 09:48:19;;;;;;;2.63;2.40;;;3.80;97.20;;;;;;1715008;28;20197;-75
2021/12/10 09:49:10;;;;;;;4.22;3.20;;;3.80;97.20;;;;;;1715045;28;20210;-76
2021/12/10 09:50:04;;;;;;;3.50;2.33;;;3.80;97.20;;;;;;1715065;28;20212;-76
2021/12/10 09:50:57;;;;;;;5.00;3.28;;;3.80;97.20;;;;;;1710347;28;20257;-76
2021/12/10 09:51:53;;;;;;;2.83;2.50;;;3.80;97.20;;;;;;1708356;29;20257;-75
2021/12/10 09:52:44;;;;;;;2.70;2.50;;;3.80;97.20;;;;;;1708405;29;20202;-75
2021/12/10 09:53:37;;;;;;;2.63;2.40;;;3.80;97.20;;;;;;1707873;29;20720;-76
2021/12/10 09:54:32;;;;;;;3.67;2.20;;;3.80;97.20;;;;;;1708241;29;20230;-75
2021/12/10 09:55:25;;;;;;;2.88;2.30;;;3.80;97.20;;;;;;1708227;29;20206;-76
2021/12/10 09:56:17;;;;;;;3.85;2.05;;;3.80;97.20;;;;;;1708254;29;20246;-76
2021/12/10 09:57:12;;;;;;;2.70;2.22;;;3.80;97.20;;;;;;1708277;29;20209;-75
2021/12/10 09:58:04;;;;;;;3.30;2.60;;;3.80;97.20;;;;;;1708300;29;20674;-76
2021/12/10 09:58:56;;;;;;;2.05;1.85;;;3.80;97.20;;;;;;1708378;29;20689;-76
2021/12/10 09:59:51;;;;;;;3.65;2.30;;;3.80;97.20;;;;;;1708299;29;20290;-75
2021/12/10 10:00:46;;;;;;;3.58;2.50;;;3.80;97.20;;;;;;1704017;28;20206;-75
2021/12/10 10:01:41;;;;;;;4.00;2.15;;;3.80;97.20;;;;;;1705702;28;20281;-76
2021/12/10 10:02:33;;;;;;;3.60;2.40;;;3.80;97.20;;;;;;1708397;29;20576;-75
2021/12/10 10:03:31;;;;;;;3.30;2.80;;;3.90;97.20;;;;;;1707806;28;20254;-75
2021/12/10 10:04:26;;;;;;;3.38;2.72;;;3.90;97.20;;;;;;1708298;29;20705;-76
2021/12/10 10:05:18;;;;;;;3.13;2.00;;;3.90;97.20;;;;;;1708234;29;20217;-76
2021/12/10 10:06:12;;;;;;;2.20;1.98;;;3.90;97.20;;;;;;1708253;29;20692;-76
2021/12/10 10:07:08;;;;;;;1.65;1.55;;;3.90;97.20;;;;;;1708255;29;20207;-76
2021/12/10 10:08:02;;;;;;;2.47;2.10;;;4.00;97.20;;;;;;1708310;29;20199;-75
2021/12/10 10:08:53;;;;;;;3.38;2.15;;;4.00;97.20;;;;;;1708194;29;20269;-76
2021/12/10 10:09:49;;;;;;;4.50;2.30;;;4.10;97.20;;;;;;1708226;29;20206;-75
2021/12/10 10:10:45;;;;;;;2.55;1.90;;;4.10;97.20;;;;;;1712585;28;20460;-75
2021/12/10 10:11:37;;;;;;;4.07;2.15;;;4.10;97.20;;;;;;1714987;28;20205;-75
2021/12/10 10:12:32;;;;;;;5.38;2.15;;;4.10;97.20;;;;;;1714872;28;20209;-75
2021/12/10 10:13:26;;;;;;;2.90;2.00;;;4.10;97.20;;;;;;1714656;28;20273;-76
2021/12/10 10:14:18;;;;;;;3.65;1.92;;;4.10;97.20;;;;;;1714819;28;20696;-76
2021/12/10 10:15:13;;;;;;;2.30;1.80;;;4.10;97.20;;;;;;1714814;28;20206;-75
2021/12/10 10:16:05;;;;;;;2.53;1.90;;;4.20;97.20;;;;;;1714825;28;20666;-76
2021/12/10 10:16:57;;;;;;;2.88;1.90;;;4.20;97.20;;;;;;1714843;28;20210;-76
2021/12/10 10:17:48;;;;;;;3.40;3.03;;;4.20;97.20;;;;;;1714823;28;20666;-76
2021/12/10 10:18:41;;;;;;;2.08;1.70;;;4.30;97.20;;;;;;1714912;28;20717;-76
2021/12/10 10:19:34;;;;;;;3.08;1.90;;;4.30;97.20;;;;;;1714764;28;20244;-75
2021/12/10 10:20:29;;;;;;;2.45;1.85;;;4.30;97.20;;;;;;1714870;28;20245;-75
2021/12/10 10:21:23;;;;;;;4.18;1.90;;;4.30;97.20;;;;;;1714848;28;20234;-75
2021/12/10 10:22:19;;;;;;;2.30;2.00;;;4.30;97.20;;;;;;1714071;28;20669;-76
2021/12/10 10:23:11;;;;;;;2.25;1.75;;;4.30;97.20;;;;;;1708053;29;20214;-76
2021/12/10 10:24:05;;;;;;;2.55;2.25;;;4.40;97.20;;;;;;1707899;29;20206;-76
2021/12/10 10:24:59;;;;;;;2.42;1.67;;;4.40;97.20;;;;;;1708174;29;20210;-76
2021/12/10 10:25:52;;;;;;;3.03;1.77;;;4.40;97.20;;;;;;1707991;29;20581;-76
2021/12/10 10:26:48;;;;;;;1.85;1.65;;;4.40;97.20;;;;;;1707339;29;20212;-76
2021/12/10 10:27:42;;;;;;;2.38;1.90;;;4.40;97.20;;;;;;1708159;29;20672;-76
2021/12/10 10:28:33;;;;;;;2.85;1.90;;;4.50;97.20;;;;;;1708138;29;20241;-76
2021/12/10 10:29:29;;;;;;;2.92;1.90;;;4.50;97.20;;;;;;1708113;29;20637;-76
2021/12/10 10:30:27;;;;;;;2.33;1.65;;;4.50;97.20;;;;;;1708211;29;20252;-76
2021/12/10 10:31:22;;;;;;;2.03;1.60;;;4.50;97.20;;;;;;1708138;29;20209;-75
2021/12/10 10:32:18;;;;;;;2.13;1.52;;;4.50;97.20;;;;;;1708136;29;20294;-76
2021/12/10 10:33:10;;;;;;;2.67;1.70;;;4.60;97.20;;;;;;1708042;29;20294;-75
2021/12/10 10:34:03;;;;;;;2.10;1.42;;;4.60;97.20;;;;;;1707903;29;20772;-76
2021/12/10 10:34:58;;;;;;;2.65;1.85;;;4.60;97.20;;;;;;1708059;29;20230;-76
2021/12/10 10:35:52;;;;;;;1.55;1.33;;;4.60;97.20;;;;;;1708011;29;20234;-76
2021/12/10 10:36:43;;;;;;;3.38;1.80;;;4.70;97.20;;;;;;1711027;28;20229;-76
2021/12/10 10:37:36;;;;;;;1.90;1.30;;;4.70;97.20;;;;;;1714768;28;20209;-76